Flight Track Log - Related Links

Times and Time Zones

All times are in EDT time to prevent confusion due to time zone crossing. See the N70MN flight status page for this flight to view local times or setup timezone preferences in your user account.

Time Position Orientation Groundspeed Altitude Reporting Facility
EDT Latitude Longitude Course Direction KTS MPH feet Rate Location/Type
Mon 01:02:12 PM 46.2367 -96.1586 119° Southeast 216 249 3,500  Level Minneapolis Center
Mon 01:03:14 PM 46.2075 -96.0814 119° Southeast 213 245 5,700 2,129 Climbing Minneapolis Center
Mon 01:04:16 PM 46.1936 -96.0094 106° East 185 213 7,900 1,984 Climbing Minneapolis Center
Mon 01:05:18 PM 46.1783 -95.9325 106° East 190 219 9,800 1,839 Climbing Minneapolis Center
Mon 01:06:20 PM 46.1647 -95.8572 105° East 192 221 11,700 1,790 Climbing Minneapolis Center
Mon 01:07:22 PM 46.1519 -95.7744 103° East 202 232 13,500 1,645 Climbing Minneapolis Center
Mon 01:08:24 PM 46.1367 -95.6950 105° East 205 236 15,100 1,548 Climbing Minneapolis Center
Mon 01:09:26 PM 46.1217 -95.6094 104° East 214 246 16,700 1,680 Climbing Minneapolis Center
Mon 01:10:29 PM 46.1028 -95.5106 105° East 215 247 18,600 1,056 Climbing Minneapolis Center
Mon 01:11:31 PM 46.0839 -95.4156 106° East 237 273 18,900 145 Climbing Minneapolis Center
Mon 01:12:33 PM 46.0542 -95.3072 112° Southeast 279 321 18,900  Level Minneapolis Center
Mon 01:13:35 PM 46.0228 -95.1989 113° Southeast 290 334 18,900  Level Minneapolis Center
Mon 01:14:37 PM 45.9906 -95.0917 113° Southeast 292 336 18,900  Level Minneapolis Center
Mon 01:15:39 PM 45.9547 -94.9658 112° Southeast 296 341 18,900  Level Minneapolis Center
Mon 01:16:41 PM 45.9222 -94.8561 113° Southeast 299 344 18,900 -484 Level Minneapolis Center
Mon 01:17:43 PM 45.8883 -94.7431 113° Southeast 304 350 17,900 -919 Descending Minneapolis Center
Mon 01:18:45 PM 45.8542 -94.6264 113° Southeast 314 361 17,000 -871 Descending Minneapolis Center
Mon 01:19:47 PM 45.8194 -94.5114 113° Southeast 316 364 16,100 -919 Descending Minneapolis Center
Mon 01:20:49 PM 45.7853 -94.3978 113° Southeast 313 360 15,100 -1,113 Descending Minneapolis Center
Mon 01:21:51 PM 45.7464 -94.2658 113° Southeast 305 351 13,800 -1,161 Descending Minneapolis Center
Mon 01:22:53 PM 45.7142 -94.1631 114° Southeast 291 335 12,700 -1,113 Descending Minneapolis Center
Mon 01:23:55 PM 45.6822 -94.0589 114° Southeast 287 330 11,500 -1,210 Descending Minneapolis Center
Mon 01:24:57 PM 45.6503 -93.9531 113° Southeast 290 334 10,200 -1,258 Descending Minneapolis Center
Mon 01:25:59 PM 45.6189 -93.8508 114° Southeast 282 325 8,900 -1,200 Descending Minneapolis Center
Mon 01:27:02 PM 45.5861 -93.7500 115° Southeast 280 322 7,700 -912 Descending Minneapolis Center
Mon 01:28:04 PM 45.5189 -93.6769 143° Southeast 250 288 7,000 -339 Descending Minneapolis Center
Mon 01:29:06 PM 45.4697 -93.6181 140° Southeast 231 266 7,000 -387 Level Minneapolis Center
Mon 01:30:08 PM 45.4231 -93.5600 139° Southeast 224 258 6,200 -871 Descending Minneapolis Center
Mon 01:31:10 PM 45.3703 -93.5250 155° Southeast 210 242 5,200 -581 Descending Minneapolis Center
Mon 01:32:12 PM 45.3292 -93.4675 135° Southeast 207 238 5,000 -97 Descending Minneapolis Center
Mon 01:33:14 PM 45.2878 -93.4208 142° Southeast 194 223 5,000 -387 Level Minneapolis Center
Mon 01:34:16 PM 45.2342 -93.3664 144° Southeast 196 226 4,200 -484 Descending Minneapolis Center
Mon 01:35:18 PM 45.1931 -93.3186 141° Southeast 191 220 4,000 -290 Descending Minneapolis Center
Mon 01:36:20 PM 45.1522 -93.2758 144° Southeast 183 211 3,600 -242 Descending Minneapolis Center
Mon 01:37:22 PM 45.1119 -93.2283 140° Southeast 187 215 3,500 -161 Descending Minneapolis Center
Mon 01:39:26 PM 45.0375 -93.1581 146° Southeast 157 181 3,100 -449 Descending Minneapolis Center
Mon 01:40:29 PM 44.9989 -93.1106 139° Southeast 154 177 2,100 -576 Descending Minneapolis Center
Mon 01:41:31 PM 44.9769 -93.0608 122° Southeast 150 173 1,900 -290 Descending Minneapolis Center
Mon 01:42:33 PM 44.9506 -93.0181 131° Southeast 144 166 1,500 -387 Descending Minneapolis Center
Mon 01:44:00 PM 44.9333 -93.0500 145° Southeast  Level FlightAware Approximate
Mon 01:51:00 PM 44.9346 -93.0603 145° Southeast  Level Estimated
Mon 01:52:00 PM 44.9346 -93.0603 145° Southeast  Level Estimated

Login

Don't have an account? Register now (free) for customized features, flight alerts, and more!